Data for 07/18/2014

Time Sea-Level Adjusted Pressure Absolute Pressure Temperature Relative Humidity Dew Point   
(mb) (inHg) (mb) (inHg) (C) (F) (%) (C) (F)
00:05 1017 30.03 846 24.98 22.3 72.1 30 4 39.3
00:10 1017 30.03 846 24.98 22.1 71.9 33 5.5 41.9
00:15 1017 30.03 846 24.98 21.9 71.4 31 4.3 39.7
00:20 1017 30.03 846 24.98 21.6 70.9 36 6.2 43.2
00:25 1017 30.03 846 24.98 20.6 69.1 37 5.6 42.1
00:30 1017 30.03 846 24.98 20.2 68.3 40 6.5 43.6
00:35 1017 30.03 846 24.98 19.6 67.3 42 6.4 43.5
00:40 1017 30.03 846 24.98 19.1 66.4 44 6.8 44.2
00:45 1017 30.03 846 24.98 19 66.2 44 6.6 43.8
00:50 1017 30.03 846 24.98 19 66.2 46 7.1 44.9
00:55 1017 30.03 846 24.98 18.6 65.5 46 7 44.6
01:00 1017 30.03 846 24.98 18.3 65 49 7.4 45.4
01:05 1017 30.03 846 24.98 18.1 64.6 47 6.8 44.2
01:10 1017 30.03 846 24.98 18.1 64.5 46 6.4 43.5
01:15 1017 30.03 846 24.98 18 64.3 48 6.8 44.3
01:20 1017 30.03 846 24.98 17.6 63.6 50 7.1 44.7
01:25 1017 30.03 846 24.98 17.3 63.1 49 6.6 43.8
01:30 1017 30.03 846 24.98 17.4 63.4 47 6.2 43.2
01:35 1017 30.03 846 24.98 17.7 63.9 51 7.6 45.7
01:40 1017 30.03 846 24.98 17.8 64.1 46 6 42.9
01:45 1017 30.03 846 24.98 17.5 63.6 46 6 42.8
01:50 1017 30.03 846 24.98 17.4 63.3 46 5.7 42.3
01:55 1017 30.03 846 24.98 17.3 63.2 46 5.8 42.4
02:00 1017 30.03 846 24.98 17.2 62.9 47 5.9 42.6
02:05 1017 30.03 846 24.98 17.1 62.7 49 6.4 43.6
02:10 1017 30.03 846 24.98 17.1 62.7 51 7 44.6
02:15 1017 30.03 846 24.98 17 62.6 51 6.8 44.2
02:20 1017 30.03 846 24.98 16.7 62.1 49 6.1 43
02:25 1017 30.03 846 24.98 16.4 61.6 51 6.3 43.3
02:30 1017 30.03 846 24.98 16 60.8 53 6.5 43.8
02:35 1017 30.03 846 24.98 15.4 59.7 54 6.3 43.4
02:40 1017 30.03 846 24.98 15.2 59.3 55 6.2 43.1
02:45 1017 30.03 846 24.98 15.3 59.5 58 7.1 44.8
02:50 1017 30.03 846 24.98 15.6 60.1 52 5.9 42.6
02:55 1017 30.03 846 24.98 15.7 60.3 51 5.8 42.4
03:00 1017 30.03 846 24.98 15.6 60.1 50 5.4 41.8
03:05 1017 30.03 846 24.98 15.7 60.2 50 5.3 41.6
03:10 1017 30.03 846 24.98 15.6 60 51 5.6 42.1
03:15 1017 30.03 846 24.98 15.4 59.7 52 5.7 42.3
03:20 1017 30.03 846 24.98 15.3 59.5 52 5.6 42
03:25 1017 30.03 846 24.98 14.9 58.9 53 5.5 41.9
03:30 1017 30.03 846 24.98 14.8 58.6 52 5.2 41.4
03:35 1017 30.03 846 24.98 15.1 59.1 49 4.5 40
03:40 1017 30.03 846 24.98 15.2 59.4 48 4.3 39.7
03:45 1017 30.03 846 24.98 15.4 59.8 46 4.1 39.3
03:50 1017 30.03 846 24.98 15.7 60.3 45 3.8 38.8
03:55 1017 30.03 846 24.98 15.9 60.5 45 4.1 39.3
04:00 1017 30.03 846 24.98 15.7 60.3 46 4.1 39.5
04:05 1017 30.03 846 24.98 15.3 59.6 46 4 39.2
04:10 1017 30.03 846 24.98 15.4 59.8 44 3.5 38.2
04:15 1017 30.03 846 24.98 16.1 61 42 3.2 37.8
04:20 1017 30.03 846 24.98 16.3 61.4 42 3.3 38
04:25 1017 30.03 846 24.98 16.2 61.2 43 3.9 39
04:30 1017 30.03 846 24.98 15.9 60.5 45 3.9 39
04:35 1017 30.03 846 24.98 15.5 59.8 46 4 39.1
04:40 1017 30.03 846 24.98 15.1 59.2 46 3.6 38.5
04:45 1017 30.03 846 24.98 15.1 59.1 47 4 39.2
04:50 1017 30.03 846 24.98 14.7 58.5 48 3.9 39
04:55 1017 30.03 846 24.98 14.5 58.1 49 4.1 39.3
05:00 1017 30.03 846 24.98 14.4 57.9 49 3.9 39.1
05:05 1017 30.03 846 24.98 14.3 57.7 50 4.1 39.4
05:10 1017 30.03 846 24.98 14 57.1 51 4.1 39.4
05:15 1017 30.03 846 24.98 14.1 57.3 49 3.6 38.5
05:20 1017 30.03 846 24.98 14.4 57.8 48 3.6 38.5
05:25 1017 30.03 847 25.01 14.6 58.2 47 3.6 38.5
05:30 1017 30.03 847 25.01 14.7 58.5 47 3.5 38.2
05:35 1017 30.03 847 25.01 15.1 59.2 45 3.2 37.8
05:40 1017 30.03 847 25.01 15.4 59.7 44 3.2 37.8
05:45 1017 30.03 847 25.01 15.7 60.2 43 3.2 37.8
05:50 1017 30.03 847 25.01 15.8 60.4 44 3.6 38.5
05:55 1017 30.03 847 25.01 15.6 60.1 44 3.6 38.6
06:00 1017 30.03 847 25.01 15.4 59.7 46 3.9 39
06:05 1017 30.03 847 25.01 15.3 59.5 46 3.8 38.9
06:10 1018 30.06 847 25.01 15.4 59.7 45 3.5 38.4
06:15 1018 30.06 847 25.01 15.6 60 44 3.6 38.5
06:20 1018 30.06 847 25.01 15.8 60.4 45 3.9 39
06:25 1018 30.06 847 25.01 16.1 61 43 3.8 38.8
06:30 1018 30.06 847 25.01 16.5 61.8 42 3.5 38.4
06:35 1018 30.06 847 25.01 16.9 62.5 45 5 40.9
06:40 1018 30.06 847 25.01 17.3 63.1 42 4.3 39.7
06:45 1018 30.06 847 25.01 17.2 62.9 42 4.3 39.8
06:50 1018 30.06 847 25.01 17.1 62.7 43 4.7 40.4
06:55 1018 30.06 847 25.01 17.2 63 43 4.5 40.1
07:00 1018 30.06 847 25.01 17.4 63.3 43 4.7 40.4
07:05 1018 30.06 847 25.01 17.6 63.7 44 5.4 41.7
07:10 1018 30.06 847 25.01 17.9 64.2 41 4.8 40.6
07:15 1018 30.06 847 25.01 18.2 64.7 40 4.6 40.2
07:20 1018 30.06 847 25.01 19.3 66.7 39 5 41.1
07:25 1018 30.06 847 25.01 20.1 68.1 36 4.8 40.7
07:30 1018 30.06 847 25.01 20.4 68.7 35 4.5 40.1
07:35 1018 30.06 847 25.01 20.8 69.4 32 3.8 38.8
07:40 1018 30.06 847 25.01 21.5 70.8 32 4.2 39.6
07:45 1018 30.06 847 25.01 21.5 70.7 32 4.4 40
07:50 1018 30.06 847 25.01 22 71.6 32 4.5 40.2
07:55 1018 30.06 847 25.01 22.2 71.9 31 4.4 39.8
08:00 1018 30.06 847 25.01 22.5 72.4 32 5.3 41.6
08:05 1018 30.06 847 25.01 22.1 71.8 33 5.3 41.5
08:10 1018 30.06 847 25.01 21.7 71 34 5.1 41.2
08:15 1018 30.06 848 25.04 21.2 70.1 35 5.4 41.7
08:20 1018 30.06 847 25.01 21.2 70.2 33 4.6 40.3
08:25 1018 30.06 847 25.01 21.5 70.6 33 4.7 40.5
08:30 1018 30.06 847 25.01 21.7 71 33 4.9 40.8
08:35 1018 30.06 847 25.01 22 71.5 33 5.1 41.1
08:40 1018 30.06 847 25.01 21.4 70.6 34 5.1 41.2
08:45 1018 30.06 847 25.01 21.8 71.3 33 5.2 41.3
08:50 1018 30.06 847 25.01 22.4 72.3 33 5.5 41.9
08:55 1018 30.06 847 25.01 22.4 72.3 34 6 42.7
09:00 1018 30.06 847 25.01 22.6 72.8 34 6 42.9
09:05 1018 30.06 847 25.01 22.4 72.4 35 6.3 43.3
09:10 1018 30.06 847 25.01 22.7 72.9 34 6 42.9
09:15 1018 30.06 847 25.01 22.7 72.8 35 6.7 44
09:20 1018 30.06 847 25.01 23.1 73.5 33 5.9 42.7
09:25 1018 30.06 847 25.01 23.5 74.3 33 6.5 43.8
09:30 1018 30.06 847 25.01 22.9 73.3 35 6.9 44.4
09:35 1018 30.06 847 25.01 23.4 74 34 6.8 44.3
09:40 1018 30.06 847 25.01 23.5 74.2 37 8 46.3
09:45 1018 30.06 847 25.01 23.9 74.9 33 6.9 44.4
09:50 1018 30.06 847 25.01 24.5 76 31 6.4 43.5
09:55 1018 30.06 847 25.01 23.9 75 32 6.3 43.3
10:00 1018 30.06 847 25.01 24.1 75.4 30 5.6 42.1
10:05 1018 30.06 847 25.01 24.5 76 29 5.5 41.9
10:10 1018 30.06 847 25.01 24.8 76.6 28 5.3 41.6
10:15 1018 30.06 847 25.01 24.5 76.1 30 6 42.9
10:20 1018 30.06 847 25.01 24.9 76.8 27 4.9 40.8
10:25 1018 30.06 847 25.01 25.3 77.5 28 5.5 41.9
10:30 1018 30.06 847 25.01 25.1 77.1 28 5.6 42
10:35 1018 30.06 847 25.01 25.1 77.1 29 5.9 42.7
10:40 1018 30.06 847 25.01 25.1 77.1 30 6.3 43.4
10:45 1018 30.06 847 25.01 25.4 77.8 31 7.2 45
10:50 1018 30.06 847 25.01 25 77.1 31 7 44.6
10:55 1018 30.06 847 25.01 25 77 30 6.4 43.5
11:00 1018 30.06 847 25.01 25.3 77.6 30 6.8 44.2
11:05 1018 30.06 847 25.01 24.9 76.8 29 6 42.8
11:10 1018 30.06 847 25.01 24.7 76.4 30 6 42.8
11:15 1018 30.06 847 25.01 24.5 76.2 30 5.9 42.7
11:20 1018 30.06 847 25.01 25.1 77.1 28 5.7 42.3
11:25 1018 30.06 847 25.01 25.3 77.5 28 5.6 42.1
11:30 1018 30.06 847 25.01 25.9 78.6 27 5.6 42
11:35 1018 30.06 847 25.01 25.6 78 26 4.8 40.6
11:40 1018 30.06 847 25.01 25.4 77.8 27 5.3 41.6
11:45 1017 30.03 847 25.01 26.3 79.3 24 4.1 39.4
11:50 1017 30.03 847 25.01 26.5 79.7 25 5 41
11:55 1017 30.03 847 25.01 26.6 79.9 23 3.8 38.8
12:00 1017 30.03 847 25.01 26.4 79.5 23 4.1 39.4
12:05 1017 30.03 846 24.98 26 78.8 23 3.8 38.8
12:10 1017 30.03 846 24.98 26.3 79.3 24 4.2 39.6
12:15 1017 30.03 846 24.98 26.9 80.4 24 4.7 40.5
12:20 1017 30.03 846 24.98 26.5 79.6 23 3.7 38.7
12:25 1017 30.03 846 24.98 27 80.6 23 4.3 39.7
12:30 1017 30.03 846 24.98 27.1 80.9 22 3.9 39.1
12:35 1017 30.03 846 24.98 27 80.6 23 4.2 39.6
12:40 1017 30.03 846 24.98 26.9 80.4 22 3.7 38.6
12:45 1017 30.03 846 24.98 27.2 81 22 4 39.2
12:50 1017 30.03 846 24.98 28 82.5 18 1.7 35
12:55 1017 30.03 846 24.98 27.3 81.2 22 3.8 38.8
13:00 1017 30.03 846 24.98 27.4 81.2 21 3.7 38.6
13:05 1017 30.03 846 24.98 27.9 82.1 21 3.9 39
13:10 1017 30.03 846 24.98 28.2 82.7 20 3.4 38.2
13:15 1017 30.03 846 24.98 28.3 83 20 3.8 38.9
13:20 1017 30.03 846 24.98 29.1 84.3 20 4.2 39.6
13:25 1017 30.03 846 24.98 28.6 83.4 20 3.6 38.5
13:30 1016 30 846 24.98 28.6 83.4 21 4.5 40.1
13:35 1016 30 846 24.98 28.3 82.9 20 3.8 38.8
13:40 1016 30 846 24.98 27.3 81.2 21 3.5 38.4
13:45 1016 30 846 24.98 28.3 82.9 20 3.7 38.7
13:50 1016 30 846 24.98 28.7 83.7 20 4.2 39.5
13:55 1016 30 845 24.95 29 84.1 20 3.9 39
14:00 1016 30 845 24.95 29.1 84.3 18 2.9 37.2
14:05 1016 30 845 24.95 28.2 82.8 20 3.5 38.4
14:10 1016 30 845 24.95 27.5 81.4 21 3.5 38.4
14:15 1016 30 845 24.95 28.4 83.1 20 3.9 39.1
14:20 1016 30 845 24.95 28.6 83.4 20 4.1 39.4
14:25 1016 30 845 24.95 28.9 84.1 19 3.5 38.3
14:30 1016 30 845 24.95 29.1 84.4 19 3.3 37.9
14:35 1016 30 845 24.95 29.2 84.6 19 3.9 39
14:40 1016 30 845 24.95 28.5 83.3 19 3.1 37.6
14:45 1016 30 845 24.95 29 84.2 18 2.5 36.5
14:50 1016 30 845 24.95 29.6 85.2 17 2.2 36
14:55 1016 30 845 24.95 28.9 84.1 18 2.5 36.5
15:00 1016 30 845 24.95 28.6 83.4 18 2.6 36.7
15:05 1016 30 845 24.95 29.4 85 17 2.5 36.5
15:10 1016 30 845 24.95 29.3 84.8 18 3 37.4
15:15 1016 30 845 24.95 29.7 85.4 17 2.5 36.6
15:20 1016 30 845 24.95 29.6 85.3 17 2.5 36.4
15:25 1016 30 845 24.95 29.3 84.7 17 2.4 36.3
15:30 1016 30 845 24.95 29.5 85.1 18 2.8 37
15:35 1016 30 845 24.95 29.6 85.3 18 3.1 37.5
15:40 1016 30 845 24.95 30.3 86.6 17 2.6 36.6
15:45 1016 30 845 24.95 30 85.9 17 3 37.4
15:50 1016 30 845 24.95 28.9 84 19 2.9 37.2
15:55 1016 30 845 24.95 28.9 83.9 19 2.9 37.2
16:00 1016 30 845 24.95 28.5 83.2 20 3.4 38.1
16:05 1016 30 845 24.95 28 82.4 20 2.9 37.3
16:10 1016 30 845 24.95 28 82.3 20 3.5 38.4
16:15 1016 30 845 24.95 28.5 83.3 18 2.5 36.6
16:20 1016 30 845 24.95 28.3 82.9 19 2.8 37
16:25 1016 30 845 24.95 28.3 83 19 2.7 36.8
16:30 1016 30 845 24.95 28.5 83.3 19 3.2 37.8
16:35 1016 30 845 24.95 28.3 82.9 19 3.1 37.5
16:40 1016 30 845 24.95 28 82.4 20 3.4 38.1
16:45 1016 30 845 24.95 28.5 83.3 19 2.8 37.1
16:50 1016 30 845 24.95 28.5 83.3 18 2.5 36.5
16:55 1016 30 845 24.95 29 84.2 18 2.4 36.3
17:00 1016 30 845 24.95 28.3 83 19 2.7 36.9
17:05 1016 30 845 24.95 28.9 84.1 19 3 37.4
17:10 1016 30 845 24.95 28.7 83.7 21 4.4 40
17:15 1016 30 845 24.95 28.2 82.8 20 3.2 37.8
17:20 1016 30 845 24.95 27.5 81.5 20 2.9 37.2
17:25 1016 30 845 24.95 27.2 81 20 3 37.3
17:30 1016 30 845 24.95 27.3 81.1 21 3.1 37.6
17:35 1016 30 845 24.95 28.1 82.5 20 3.2 37.8
17:40 1016 30 845 24.95 28.9 84 19 3.1 37.7
17:45 1016 30 845 24.95 28.9 84.1 21 4.8 40.6
17:50 1016 30 845 24.95 28 82.5 23 5.3 41.5
17:55 1016 30 845 24.95 27.1 80.8 25 5.6 42
18:00 1016 30 845 24.95 26.9 80.4 25 5.6 42
18:05 1016 30 845 24.95 26.8 80.2 26 5.7 42.3
18:10 1016 30 845 24.95 26.5 79.8 27 6 42.9
18:15 1016 30 845 24.95 26.5 79.7 24 4.7 40.4
18:20 1016 30 845 24.95 26.3 79.3 25 5.2 41.4
18:25 1016 30 845 24.95 26 78.7 26 5.3 41.5
18:30 1016 30 845 24.95 25.5 77.8 26 5 41
18:35 1016 30 846 24.98 25.3 77.5 26 4.9 40.8
18:40 1016 30 846 24.98 25 76.9 27 4.9 40.8
18:45 1016 30 846 24.98 24.8 76.6 28 5.1 41.3
18:50 1017 30.03 846 24.98 24.5 76.2 28 5.3 41.5
18:55 1017 30.03 846 24.98 24.4 75.8 28 4.7 40.5
19:00 1017 30.03 846 24.98 24.2 75.5 28 4.7 40.4
19:05 1017 30.03 846 24.98 24.1 75.4 29 5.3 41.5
19:10 1017 30.03 846 24.98 23.8 74.8 31 5.8 42.4
19:15 1017 30.03 846 24.98 23.1 73.5 33 5.9 42.7
19:20 1017 30.03 846 24.98 22.6 72.7 32 5.3 41.5
19:25 1017 30.03 846 24.98 22.5 72.5 32 5 41
19:30 1017 30.03 846 24.98 22.4 72.3 31 4.5 40.1
19:35 1017 30.03 846 24.98 22.5 72.4 32 5.1 41.3
19:40 1017 30.03 846 24.98 22.1 71.9 32 5 41.1
19:45 1017 30.03 846 24.98 22 71.6 35 6.2 43.1
19:50 1017 30.03 846 24.98 21.6 70.9 35 5.7 42.2
19:55 1017 30.03 846 24.98 21.4 70.5 40 7.4 45.2
20:00 1017 30.03 846 24.98 20.8 69.4 40 7 44.5
20:05 1017 30.03 846 24.98 20.5 69 40 6.6 43.9
20:10 1017 30.03 846 24.98 20.6 69 41 7 44.6
20:15 1017 30.03 847 25.01 20.5 68.8 45 8.2 46.8
20:20 1017 30.03 847 25.01 20.4 68.7 42 7.4 45.3
20:25 1017 30.03 847 25.01 20.5 68.9 40 6.5 43.7
20:30 1017 30.03 847 25.01 20.5 69 41 6.9 44.4
20:35 1018 30.06 847 25.01 20.4 68.7 43 7.4 45.3
20:40 1018 30.06 847 25.01 20.2 68.4 46 8.2 46.8
20:45 1018 30.06 847 25.01 20.1 68.2 42 7.1 44.8
20:50 1018 30.06 847 25.01 20.1 68.1 44 7.7 45.8
20:55 1018 30.06 847 25.01 19.9 67.8 43 7.2 44.9
21:00 1018 30.06 847 25.01 19.8 67.6 48 8.6 47.6
21:05 1018 30.06 847 25.01 19.5 67.1 46 7.9 46.1
21:10 1018 30.06 847 25.01 19.4 66.9 45 7.5 45.4
21:15 1018 30.06 847 25.01 19.4 66.8 49 8.4 47.2
21:20 1018 30.06 847 25.01 18.9 66.1 51 8.8 47.8
21:25 1018 30.06 847 25.01 18.6 65.5 53 8.9 48
21:30 1018 30.06 847 25.01 18.7 65.6 50 8.2 46.8
21:35 1018 30.06 847 25.01 18.7 65.7 49 7.9 46.3
21:40 1018 30.06 847 25.01 18.8 65.8 49 7.9 46.2
21:45 1018 30.06 847 25.01 18.7 65.7 48 7.6 45.7
21:50 1018 30.06 848 25.04 18.8 65.9 45 6.8 44.3
21:55 1018 30.06 848 25.04 18.9 66 46 7.3 45.1
22:00 1018 30.06 847 25.01 18.9 66.1 50 8.5 47.3
22:05 1018 30.06 847 25.01 18.3 64.9 53 8.6 47.5
22:10 1018 30.06 847 25.01 17.8 64 54 8.5 47.3
22:15 1018 30.06 847 25.01 17.5 63.5 54 8.1 46.6
22:20 1018 30.06 847 25.01 17.4 63.2 54 8 46.5
22:25 1018 30.06 847 25.01 17.4 63.3 54 8.1 46.6
22:30 1018 30.06 847 25.01 17.5 63.5 53 8 46.4
22:35 1018 30.06 847 25.01 17.6 63.6 53 8 46.4
22:40 1018 30.06 847 25.01 17.7 63.8 50 7.3 45.2
22:45 1018 30.06 847 25.01 17.7 63.8 54 8.2 46.8
22:50 1018 30.06 847 25.01 17.7 63.8 49 7 44.6
22:55 1018 30.06 847 25.01 17.6 63.7 50 7.2 45
23:00 1018 30.06 847 25.01 17.5 63.6 51 7.3 45.2
23:05 1018 30.06 847 25.01 17.2 63 53 7.5 45.6
23:10 1018 30.06 847 25.01 17.1 62.7 51 7 44.6
23:15 1018 30.06 847 25.01 17 62.6 52 7.1 44.8
23:20 1018 30.06 847 25.01 16.9 62.5 51 6.7 44.1
23:25 1018 30.06 847 25.01 16.9 62.4 51 6.7 44.1
23:30 1018 30.06 847 25.01 16.7 62 51 6.5 43.6
23:35 1018 30.06 847 25.01 16.6 61.9 50 6.2 43.2
23:40 1018 30.06 847 25.01 16.9 62.4 47 5.7 42.3
23:45 1018 30.06 847 25.01 17 62.7 48 6 42.8
23:50 1018 30.06 847 25.01 16.9 62.5 49 6.1 43
23:55 1018 30.06 847 25.01 16.9 62.4 48 5.9 42.6
24:00 1018 30.06 847 25.01 16.9 62.4 48 5.9 42.6